Flight Track Log - Related Links

Times and Time Zones

All times are in EDT time to prevent confusion due to time zone crossing. See the N449ND flight status page for this flight to view local times or setup timezone preferences in your user account.

Time Position Orientation Groundspeed Altitude Reporting Facility
EDT Latitude Longitude Course Direction KTS MPH feet Rate Location/Type
Thu 08:32:31 AM 27.4983 -80.3522 329° Northwest 100 115 600  Level Miami Center
Thu 08:33:31 AM 27.4989 -80.3314 88° East 83 96 1,300 650 Climbing Miami Center
Thu 08:34:31 AM 27.4992 -80.3125 89° East 72 83 1,900 1,350 Climbing Miami Center
Thu 08:35:31 AM 27.5019 -80.2917 81° East 66 76 4,000 550 Climbing Miami Center
Thu 08:36:31 AM 27.5044 -80.2706 82° East 66 76 3,000 -200 Descending Miami Center
Thu 08:37:00 AM 27.6185 -80.4512 329° Northwest  Level FlightAware Approximate
Thu 08:37:31 AM 27.5250 -80.2828 332° Northwest 45 52 3,600  Level Miami Center
Thu 08:38:31 AM 27.5369 -80.3114 295° West 90 104 3,900 200 Climbing Miami Center
Thu 08:39:31 AM 27.5550 -80.3422 303° West 115 132 4,000  Climbing Miami Center
Thu 08:40:31 AM 27.5753 -80.3664 313° West 121 139 3,900 -50 Descending Miami Center
Thu 08:41:31 AM 27.5997 -80.3953 314° West 126 145 3,900 50 Level Miami Center
Thu 08:42:31 AM 27.6239 -80.4242 313° West 121 139 4,000  Climbing Miami Center
Thu 08:43:31 AM 27.6461 -80.4553 309° West 121 139 3,900  Descending Miami Center
Thu 08:44:31 AM 27.6686 -80.4794 316° Northwest 121 139 4,000 50 Climbing Miami Center
Thu 08:45:31 AM 27.6886 -80.5106 306° West 121 139 4,000  Level Miami Center
Thu 08:46:31 AM 27.7022 -80.5486 292° West 121 139 4,000 -50 Level Miami Center
Thu 08:47:31 AM 27.7181 -80.5842 297° West 121 139 3,900 -50 Descending Miami Center
Thu 08:48:31 AM 27.7339 -80.6175 298° West 121 139 3,900  Level Miami Center
Thu 08:49:31 AM 27.7475 -80.6508 295° West 121 139 3,900 50 Level Miami Center
Thu 08:50:31 AM 27.7614 -80.6842 295° West 121 139 4,000 50 Climbing Miami Center
Thu 08:51:31 AM 27.7792 -80.7222 298° West 121 139 4,000 -50 Level Miami Center
Thu 08:52:31 AM 27.7947 -80.7581 296° West 121 139 3,900 -50 Descending Miami Center
Thu 08:53:31 AM 27.8106 -80.7892 300° West 121 139 3,900 50 Level Miami Center
Thu 08:54:31 AM 27.8264 -80.8272 295° West 121 139 4,000 50 Climbing Miami Center
Thu 08:55:31 AM 27.8378 -80.8650 289° West 121 139 4,000 -50 Level Miami Center
Thu 08:56:31 AM 27.8411 -80.9006 276° West 121 139 3,900 -50 Descending Miami Center
Thu 08:57:31 AM 27.8439 -80.9428 274° West 126 145 3,900  Level Miami Center
Thu 08:58:31 AM 27.8469 -80.9806 275° West 126 145 3,900  Level Miami Center
Thu 08:59:31 AM 27.8544 -81.0161 283° West 121 139 3,900 50 Level Miami Center
Thu 09:00:31 AM 27.8597 -81.0514 280° West 121 139 4,000 50 Climbing Miami Center
Thu 09:01:31 AM 27.8669 -81.0869 283° West 121 139 4,000  Level Miami Center
Thu 09:02:31 AM 27.8700 -81.1292 275° West 121 139 4,000 -50 Level Miami Center
Thu 09:03:31 AM 27.8708 -81.1669 271° West 121 139 3,900 -50 Descending Miami Center
Thu 09:04:31 AM 27.8717 -81.2069 271° West 121 139 3,900  Level Miami Center
Thu 09:05:31 AM 27.8811 -81.2425 287° West 121 139 3,900 50 Level Miami Center
Thu 09:06:31 AM 27.8903 -81.2850 284° West 126 145 4,000  Climbing Miami Center
Thu 09:07:31 AM 27.8933 -81.3228 275° West 126 145 3,900 -50 Descending Miami Center
Thu 09:08:31 AM 27.9003 -81.3606 282° West 126 145 3,900 50 Level Miami Center
Thu 09:09:31 AM 27.9075 -81.3986 282° West 126 145 4,000 50 Climbing Miami Center
Thu 09:10:31 AM 27.9125 -81.4364 279° West 126 145 4,000  Level Miami Center
Thu 09:11:31 AM 27.9156 -81.4739 275° West 126 145 4,000  Level Miami Center
Thu 09:12:31 AM 27.9228 -81.5119 282° West 126 145 4,000  Level Miami Center
Thu 09:13:31 AM 27.9278 -81.5497 279° West 126 145 4,000  Level Miami Center
Thu 09:14:31 AM 27.9306 -81.5875 275° West 126 145 4,000  Level Miami Center
Thu 09:15:31 AM 27.9356 -81.6250 279° West 126 145 4,000  Level Miami Center
Thu 09:16:31 AM 27.9406 -81.6631 278° West 126 145 4,000 50 Level Miami Center
Thu 09:17:31 AM 27.9456 -81.7008 279° West 126 145 4,100  Climbing Miami Center
Thu 09:18:31 AM 27.9506 -81.7386 279° West 126 145 4,000  Descending Miami Center
Thu 09:19:31 AM 27.9536 -81.7764 275° West 126 145 4,100  Climbing Miami Center
Thu 09:20:31 AM 27.9606 -81.8119 282° West 126 145 4,000 -50 Descending Miami Center
Thu 09:21:31 AM 27.9656 -81.8497 279° West 126 145 4,000  Level Miami Center
Thu 09:22:31 AM 27.9686 -81.8872 275° West 126 145 4,000  Level Miami Center
Thu 09:23:31 AM 27.9756 -81.9206 283° West 126 145 4,000  Level Miami Center
Thu 09:24:31 AM 27.9806 -81.9583 279° West 126 145 4,000  Level Miami Center
Thu 09:25:31 AM 27.9836 -81.9939 276° West 126 145 4,000  Level Miami Center
Thu 09:26:46 AM 27.9833 -82.0333 270° West 109 125 4,000  Level Tampa TRACON
Thu 09:27:52 AM 27.9833 -82.0667 270° West 115 132 4,000  Level Tampa TRACON
Thu 09:28:52 AM 27.9833 -82.1167 270° West 112 129 4,000  Level Tampa TRACON
Thu 09:29:58 AM 27.9833 -82.1500 270° West 113 130 4,000  Level Tampa TRACON
Thu 09:30:58 AM 28.0000 -82.1833 300° West 113 130 4,000  Level Tampa TRACON
Thu 09:31:46 AM 28.0000 -82.2167 270° West 110 127 4,000 -53 Level Tampa TRACON
Thu 09:32:52 AM 28.0000 -82.2500 270° West 109 125 3,900  Descending Tampa TRACON
Thu 09:33:52 AM 27.9833 -82.2833 240° Southwest 108 124 4,000 50 Climbing Tampa TRACON
Thu 09:34:52 AM 27.9833 -82.3167 270° West 101 116 4,000  Level Tampa TRACON
Thu 09:35:52 AM 27.9833 -82.3500 270° West 101 116 4,000 50 Level Tampa TRACON
Thu 09:36:52 AM 27.9667 -82.3667 221° Southwest 107 123 4,100 50 Climbing Tampa TRACON
Thu 09:37:52 AM 27.9667 -82.4000 270° West 107 123 4,100  Level Tampa TRACON
Thu 09:38:58 AM 27.9667 -82.4500 270° West 106 122 4,100 -48 Level Tampa TRACON
Thu 09:39:58 AM 27.9667 -82.4833 270° West 108 124 4,000 -50 Descending Tampa TRACON
Thu 09:40:59 AM 27.9667 -82.5167 270° West 104 120 4,000  Level Tampa TRACON
Thu 09:41:53 AM 27.9667 -82.5333 270° West 106 122 4,000  Level Tampa TRACON
Thu 09:42:59 AM 27.9667 -82.5833 270° West 102 117 4,000  Level Tampa TRACON
Thu 09:43:53 AM 27.9667 -82.6000 270° West 99 114 4,000  Level Tampa TRACON
Thu 09:44:59 AM 27.9667 -82.6333 270° West 97 112 4,000  Level Tampa TRACON
Thu 09:45:59 AM 27.9500 -82.6667 240° Southwest 93 107 4,000  Level Tampa TRACON
Thu 09:46:59 AM 27.9333 -82.6833 221° Southwest 93 107 4,000  Level Tampa TRACON
Thu 09:47:59 AM 27.9167 -82.7167 241° Southwest 96 110 4,000 -150 Level Tampa TRACON
Thu 09:48:59 AM 27.9000 -82.7333 221° Southwest 83 96 3,700 -476 Descending Tampa TRACON
Thu 09:50:05 AM 27.8833 -82.7333 180° South 80 92 3,000 -579 Descending Tampa TRACON
Thu 09:50:53 AM 27.8667 -82.7333 180° South 80 92 2,600 -556 Descending Tampa TRACON
Thu 09:51:53 AM 27.8333 -82.7333 180° South 82 94 2,000 -300 Descending Tampa TRACON
Thu 09:52:53 AM 27.8167 -82.7333 180° South 87 100 2,000  Level Tampa TRACON
Thu 09:53:53 AM 27.8000 -82.7333 180° South 82 94 2,000  Level Tampa TRACON
Thu 09:54:53 AM 27.7667 -82.7333 180° South 82 94 2,000 -52 Level Tampa TRACON
Thu 09:55:48 AM 27.7500 -82.7167 138° Southeast 76 87 1,900  Descending Tampa TRACON
Thu 09:56:54 AM 27.7500 -82.6833 90° East 85 98 2,000 92 Climbing Tampa TRACON
Thu 09:57:59 AM 27.7667 -82.6667 42° Northeast 85 98 2,100  Climbing Tampa TRACON
Thu 09:58:54 AM 27.7833 -82.6667 360° North 127 146 2,000 -149 Descending Tampa TRACON
Thu 10:00:00 AM 27.8167 -82.6667 360° North 133 153 1,800 -429 Descending Tampa TRACON
Thu 10:01:00 AM 27.8500 -82.6833 336° Northwest 123 142 1,100 -650 Descending Tampa TRACON
Thu 10:02:00 AM 27.8833 -82.6833 360° North 84 97 500 -600 Descending Tampa TRACON

Login

Don't have an account? Register now (free) for customized features, flight alerts, and more!